Hovedside
METAR-TAF:

METAR-TAF

Lufthavner :

Flystasjon

Ismaïlia, Egypt

breddegrad: 30-35-54N, lengdegrad: 032-14-13E, høyde over havet: 13 m

Gjeldene værobservasjon

Denne rapporten ble laget for 1 time og 7 minutter siden, klokken 14:00 UTC
Vind 11 kt fra Nord
Temperatur 27°C
Luftfuktighet 42%
Trykk 1016 hPa
Sikt 10 km eller mer
Få skyer i en høyde av 2500 ft

METAR: HEIS 181400Z 35011KT 9999 FEW025 27/13 Q1016

Tid: 17:07 (15:07 UTC)


TAF: fraværende

Værobservasjoner og værvarsel for over 4000 flyplasser (METAR- og TAF-rapporter).

Tilgjengelige stasjoner er representert av de røde og gule prikkene på kartet.

Hold musepekeren over prikken for å se navnet på stasjonen.

Klikk så for å se værobservasjoner og -varsler.

For å forandre kartet kan du klikke på den grønne knappen med svart kryss for å zoome inn, på den grønne knappen med strek for å zoome ut, eller på de grønne pilene for å se tilstøtende kart.


METAR-TAF: